Time;durP1;ratioP1;P1;durP2;ratioP2;P2;SDS_P1;SDS_P2;PMS_P1;PMS_P2;Temp;Humidity;BMP_temperature;BMP_pressure;BME280_temperature;BME280_humidity;BME280_pressure;Samples;Min_cycle;Max_cycle;Signal;HPM_P1;HPM_P2
2021/09/03 00:02:18;;;;;;;19.37;14.20;;;;;;;15.54;72.65;102070.13;5038109;28;20174;-71
2021/09/03 00:04:43;;;;;;;23.77;14.77;;;;;;;15.63;71.91;102063.22;5037068;28;20491;-72
2021/09/03 00:07:09;;;;;;;23.20;16.47;;;;;;;15.74;71.43;102065.94;5037755;28;20190;-72
2021/09/03 00:09:35;;;;;;;29.40;17.50;;;;;;;15.71;71.65;102059.78;5037847;28;20194;-71
2021/09/03 00:12:00;;;;;;;30.73;17.57;;;;;;;15.68;71.73;102057.97;5037379;28;20181;-72
2021/09/03 00:14:25;;;;;;;22.70;15.13;;;;;;;15.78;71.86;102058.97;5038051;28;20252;-72
2021/09/03 00:16:51;;;;;;;19.23;14.20;;;;;;;15.75;72.07;102061.56;5037250;28;20165;-72
2021/09/03 00:19:16;;;;;;;20.27;14.60;;;;;;;15.57;73.04;102054.38;5037803;28;20166;-72
2021/09/03 00:21:41;;;;;;;24.77;15.20;;;;;;;15.56;72.58;102049.97;5038402;28;20264;-73
2021/09/03 00:24:07;;;;;;;22.97;14.83;;;;;;;15.76;72.06;102056.34;5037701;28;20255;-73
2021/09/03 00:26:32;;;;;;;16.93;14.57;;;;;;;15.56;73.02;102044.72;5037786;28;20249;-73
2021/09/03 00:28:58;;;;;;;19.37;14.70;;;;;;;15.40;73.95;102044.59;5038138;28;20206;-71
2021/09/03 00:31:23;;;;;;;21.07;13.70;;;;;;;15.24;74.56;102040.03;5037858;28;20205;-72
2021/09/03 00:33:48;;;;;;;20.37;14.90;;;;;;;15.03;75.21;102038.03;5037749;28;20181;-71
2021/09/03 00:36:14;;;;;;;21.60;15.40;;;;;;;15.27;74.31;102043.56;5038107;28;20181;-72
2021/09/03 00:38:39;;;;;;;20.80;15.20;;;;;;;15.52;73.39;102032.41;5037674;28;20200;-71
2021/09/03 00:41:04;;;;;;;17.47;13.73;;;;;;;15.52;73.66;102027.16;5037680;28;20175;-71
2021/09/03 00:43:30;;;;;;;22.87;15.10;;;;;;;15.46;73.77;102035.88;5037938;28;20439;-71
2021/09/03 00:45:56;;;;;;;21.60;14.30;;;;;;;15.41;73.08;102033.22;5037547;28;20240;-71
2021/09/03 00:48:22;;;;;;;20.53;14.27;;;;;;;15.38;73.93;102027.91;5037744;28;20464;-71
2021/09/03 00:50:48;;;;;;;21.90;15.50;;;;;;;15.46;73.73;102025.38;5038260;28;20400;-71
2021/09/03 00:53:13;;;;;;;22.67;15.17;;;;;;;15.47;73.18;102028.00;5037050;28;20420;-72
2021/09/03 00:55:39;;;;;;;23.53;14.27;;;;;;;15.32;73.90;102022.59;5037612;28;20174;-71
2021/09/03 00:58:04;;;;;;;20.33;14.93;;;;;;;15.22;74.31;102023.34;5038087;28;20171;-71
2021/09/03 01:00:29;;;;;;;17.50;13.90;;;;;;;15.38;73.78;102022.66;5037529;28;20552;-71
2021/09/03 01:02:55;;;;;;;18.50;13.33;;;;;;;15.20;74.41;102025.97;5037565;28;20178;-71
2021/09/03 01:05:23;;;;;;;23.13;14.53;;;;;;;15.42;73.93;102021.81;5037543;28;20229;-71
2021/09/03 01:07:49;;;;;;;19.07;13.57;;;;;;;15.30;74.26;102011.19;5037396;28;20206;-72
2021/09/03 01:10:17;;;;;;;18.30;12.90;;;;;;;15.18;74.90;102021.56;5036779;28;20433;-71
2021/09/03 01:12:43;;;;;;;21.00;14.20;;;;;;;15.19;74.53;102010.19;5041647;28;20453;-72
2021/09/03 01:15:08;;;;;;;16.37;12.53;;;;;;;15.08;74.89;102004.81;5040762;28;20407;-71
2021/09/03 01:17:36;;;;;;;17.80;13.60;;;;;;;15.18;74.31;102006.72;5040875;28;20170;-71
2021/09/03 01:20:03;;;;;;;21.03;14.47;;;;;;;15.12;74.42;101996.97;5041406;28;20454;-71
2021/09/03 01:22:28;;;;;;;19.70;13.70;;;;;;;15.14;74.81;102002.25;5040740;28;20395;-72
2021/09/03 01:24:54;;;;;;;20.73;13.23;;;;;;;15.35;73.36;101985.84;5040670;28;20387;-72
2021/09/03 01:27:19;;;;;;;20.17;13.07;;;;;;;15.02;74.33;101997.75;5041064;28;20234;-72
2021/09/03 01:29:44;;;;;;;17.07;13.50;;;;;;;15.14;73.90;101995.28;5055114;28;20224;-73
2021/09/03 01:32:10;;;;;;;19.07;14.90;;;;;;;14.96;74.17;101987.19;5060713;28;20173;-72
2021/09/03 01:34:35;;;;;;;21.43;14.67;;;;;;;14.90;74.74;101987.13;5060709;28;20190;-70
2021/09/03 01:37:00;;;;;;;21.73;14.50;;;;;;;15.15;73.90;101990.88;5060389;28;20177;-72
2021/09/03 01:39:26;;;;;;;21.90;14.30;;;;;;;14.84;74.70;101982.66;5060477;28;20505;-71
2021/09/03 01:41:51;;;;;;;18.87;13.67;;;;;;;15.02;74.50;101978.47;5060778;28;20177;-71
2021/09/03 01:44:17;;;;;;;22.70;13.37;;;;;;;14.84;74.84;101984.41;5060145;28;20215;-71
2021/09/03 01:46:42;;;;;;;23.00;13.87;;;;;;;14.80;75.14;101981.75;5060004;28;20525;-71
2021/09/03 01:49:08;;;;;;;16.40;13.30;;;;;;;14.99;74.47;101987.19;5060696;28;20524;-71
2021/09/03 01:51:33;;;;;;;21.30;14.40;;;;;;;14.94;73.92;101981.03;5060211;28;20180;-71
2021/09/03 01:53:59;;;;;;;19.87;14.60;;;;;;;14.79;74.72;101982.63;5060080;28;20170;-71
2021/09/03 01:56:25;;;;;;;18.00;13.10;;;;;;;14.75;75.08;101978.19;5060603;28;20253;-71
2021/09/03 01:58:50;;;;;;;20.57;13.30;;;;;;;14.41;76.09;101971.56;5059867;28;20431;-71
2021/09/03 02:01:15;;;;;;;17.03;13.20;;;;;;;14.72;75.39;101967.66;5059910;28;20235;-71
2021/09/03 02:03:41;;;;;;;21.43;12.83;;;;;;;14.88;74.66;101973.09;5060181;28;20189;-72
2021/09/03 02:06:06;;;;;;;17.33;13.07;;;;;;;14.88;74.39;101971.31;5059869;28;20176;-73
2021/09/03 02:08:31;;;;;;;19.53;12.70;;;;;;;14.86;74.51;101959.06;5060011;28;20209;-71
2021/09/03 02:10:57;;;;;;;15.57;12.33;;;;;;;14.80;74.42;101958.13;5060229;28;20438;-71
2021/09/03 02:13:22;;;;;;;18.80;13.00;;;;;;;14.71;75.11;101960.66;5058879;28;20177;-73
2021/09/03 02:15:49;;;;;;;17.00;13.60;;;;;;;14.70;74.91;101958.00;5059691;28;20197;-71
2021/09/03 02:18:14;;;;;;;17.73;12.83;;;;;;;14.68;75.27;101958.00;5060048;28;20166;-71
2021/09/03 02:20:40;;;;;;;23.40;14.63;;;;;;;14.66;74.70;101954.44;5059524;28;20491;-72
2021/09/03 02:23:05;;;;;;;17.70;13.57;;;;;;;14.82;74.40;101955.53;5059519;28;20181;-72
2021/09/03 02:25:30;;;;;;;15.53;13.00;;;;;;;14.48;75.28;101955.94;5059952;28;20255;-71
2021/09/03 02:27:55;;;;;;;20.20;13.27;;;;;;;14.54;75.19;101951.66;5059226;28;20202;-71
2021/09/03 02:30:21;;;;;;;17.03;13.30;;;;;;;14.65;74.88;101950.97;5059346;28;20181;-72
2021/09/03 02:32:46;;;;;;;17.43;12.30;;;;;;;14.67;74.67;101950.97;5059711;28;20192;-72
2021/09/03 02:35:11;;;;;;;22.70;12.60;;;;;;;14.67;75.18;101945.72;5059264;28;20178;-71
2021/09/03 02:37:37;;;;;;;14.47;12.20;;;;;;;14.38;75.85;101942.69;5059686;28;20178;-72
2021/09/03 02:40:03;;;;;;;32.33;23.80;;;;;;;14.64;74.88;101935.19;5059433;28;20174;-71
2021/09/03 02:42:28;;;;;;;18.60;13.53;;;;;;;14.49;75.13;101939.34;5059061;28;20227;-70
2021/09/03 02:44:53;;;;;;;20.97;14.57;;;;;;;14.51;75.07;101935.88;5059898;28;20403;-70
2021/09/03 02:47:19;;;;;;;19.53;13.80;;;;;;;14.66;74.82;101938.69;5059192;28;20287;-71
2021/09/03 02:49:44;;;;;;;23.67;13.70;;;;;;;14.71;74.24;101939.66;5058915;28;20174;-72
2021/09/03 02:52:09;;;;;;;19.37;12.90;;;;;;;14.58;75.34;101935.06;5059398;28;20192;-70
2021/09/03 02:54:35;;;;;;;15.60;12.50;;;;;;;14.70;74.55;101935.25;5058923;28;20213;-71
2021/09/03 02:57:00;;;;;;;17.87;12.30;;;;;;;14.74;74.32;101937.03;5058927;28;20178;-71
2021/09/03 02:59:25;;;;;;;17.77;13.73;;;;;;;14.73;74.15;101927.41;5059172;28;20177;-71
2021/09/03 03:01:51;;;;;;;16.30;12.40;;;;;;;14.59;74.64;101928.97;5058259;28;20600;-70
2021/09/03 03:04:16;;;;;;;16.50;12.93;;;;;;;14.77;74.07;101923.94;5058696;28;20204;-71
2021/09/03 03:06:41;;;;;;;18.37;12.27;;;;;;;14.80;74.08;101924.00;5059207;28;20188;-71
2021/09/03 03:09:07;;;;;;;15.60;12.50;;;;;;;14.79;74.17;101924.88;5058695;28;20205;-71
2021/09/03 03:11:32;;;;;;;18.00;13.10;;;;;;;14.78;74.07;101928.34;5058730;28;20535;-71
2021/09/03 03:14:11;;;;;;;18.70;12.67;;;;;;;14.64;74.50;101917.69;5058814;28;20179;-71
2021/09/03 03:16:36;;;;;;;24.50;13.73;;;;;;;14.86;73.71;101924.94;5058723;28;20456;-72
2021/09/03 03:19:02;;;;;;;18.13;12.60;;;;;;;14.93;74.01;101918.88;5058572;28;20406;-72
2021/09/03 03:21:27;;;;;;;19.00;13.73;;;;;;;14.98;73.45;101912.81;5058620;28;20527;-72
2021/09/03 03:23:53;;;;;;;15.83;12.30;;;;;;;14.76;74.25;101914.34;5058675;28;20169;-72
2021/09/03 03:26:18;;;;;;;16.50;12.50;;;;;;;14.79;74.04;101910.88;5059465;28;20446;-71
2021/09/03 03:28:43;;;;;;;19.10;12.73;;;;;;;14.98;73.95;101911.94;5055503;28;20214;-71
2021/09/03 03:31:09;;;;;;;19.33;13.43;;;;;;;15.21;73.13;101911.25;5039162;28;20190;-71
2021/09/03 03:33:34;;;;;;;18.57;12.60;;;;;;;15.09;73.46;101915.53;5039192;28;20178;-71
2021/09/03 03:35:59;;;;;;;17.80;12.77;;;;;;;15.05;73.43;101911.13;5038873;28;20170;-71
2021/09/03 03:38:24;;;;;;;19.10;12.37;;;;;;;15.14;73.57;101910.31;5039068;28;20174;-72
2021/09/03 03:40:50;;;;;;;21.53;13.90;;;;;;;15.19;72.99;101903.38;5038838;28;20398;-72
2021/09/03 03:43:15;;;;;;;19.60;12.93;;;;;;;15.20;73.05;101913.00;5039348;28;20174;-72
2021/09/03 03:45:40;;;;;;;17.50;12.97;;;;;;;15.32;72.91;101907.00;5038468;28;20436;-71
2021/09/03 03:48:06;;;;;;;18.03;13.10;;;;;;;15.48;72.67;101906.25;5037664;28;20218;-71
2021/09/03 03:50:31;;;;;;;19.13;12.40;;;;;;;15.55;71.83;101890.53;5038412;28;20185;-72
2021/09/03 03:52:56;;;;;;;17.80;12.70;;;;;;;15.40;72.84;101900.06;5038321;28;20189;-72
2021/09/03 03:55:22;;;;;;;19.40;14.90;;;;;;;15.56;72.37;101881.78;5037766;28;20166;-72
2021/09/03 03:57:47;;;;;;;18.30;14.53;;;;;;;15.56;72.18;101884.41;5038059;28;20174;-72
2021/09/03 04:00:13;;;;;;;18.20;13.73;;;;;;;15.52;72.80;101880.88;5037854;28;20228;-73
2021/09/03 04:02:38;;;;;;;19.67;13.40;;;;;;;15.32;73.21;101878.09;5038285;28;20216;-73
2021/09/03 04:05:04;;;;;;;19.50;14.90;;;;;;;15.51;72.80;101873.88;5037828;28;20808;-73
2021/09/03 04:07:29;;;;;;;20.60;16.13;;;;;;;15.65;71.46;101868.69;5038072;28;20256;-73
2021/09/03 04:09:55;;;;;;;18.17;14.13;;;;;;;15.44;72.81;101869.44;5038452;28;20182;-73
2021/09/03 04:12:20;;;;;;;16.70;13.60;;;;;;;15.36;72.74;101861.50;5038078;28;20508;-73
2021/09/03 04:14:45;;;;;;;18.93;13.93;;;;;;;15.45;72.66;101865.91;5037990;28;20174;-73
2021/09/03 04:17:11;;;;;;;22.90;14.37;;;;;;;15.39;72.68;101871.16;5037630;28;20181;-73
2021/09/03 04:19:36;;;;;;;18.33;12.93;;;;;;;15.24;73.50;101866.66;5038116;28;20420;-72
2021/09/03 04:22:02;;;;;;;22.13;14.20;;;;;;;15.48;72.87;101860.72;5038046;28;20166;-72
2021/09/03 04:24:27;;;;;;;22.47;14.13;;;;;;;15.68;72.12;101854.69;5037998;28;20257;-71
2021/09/03 04:26:52;;;;;;;20.60;14.60;;;;;;;15.41;72.58;101853.63;5037647;28;20198;-73
2021/09/03 04:29:17;;;;;;;18.80;14.10;;;;;;;15.38;72.72;101849.22;5037743;28;20577;-71
2021/09/03 04:31:44;;;;;;;18.80;13.83;;;;;;;15.59;72.91;101858.16;5038049;28;20182;-73
2021/09/03 04:34:09;;;;;;;20.20;13.80;;;;;;;15.37;73.09;101846.59;5037671;28;20174;-72
2021/09/03 04:36:34;;;;;;;17.17;13.57;;;;;;;15.55;72.51;101859.00;5037848;28;20398;-72
2021/09/03 04:39:00;;;;;;;20.00;13.90;;;;;;;15.31;72.77;101863.19;5038347;28;20432;-72
2021/09/03 04:41:25;;;;;;;21.70;14.13;;;;;;;15.56;72.28;101858.13;5037763;28;20182;-72
2021/09/03 04:43:51;;;;;;;20.00;15.60;;;;;;;15.52;72.66;101849.34;5037541;28;20520;-72
2021/09/03 04:46:17;;;;;;;16.70;14.47;;;;;;;15.64;72.05;101852.06;5046440;28;21469;-70
2021/09/03 04:48:42;;;;;;;17.40;14.63;;;;;;;15.58;72.07;101848.50;5077875;28;20501;-72
2021/09/03 04:51:07;;;;;;;17.40;13.70;;;;;;;15.38;72.44;101846.59;5066582;28;20172;-73
2021/09/03 04:53:33;;;;;;;18.40;14.50;;;;;;;15.40;72.94;101846.63;5072179;28;20235;-71
2021/09/03 04:55:58;;;;;;;21.57;14.93;;;;;;;15.45;72.62;101845.78;5073083;28;20188;-71
2021/09/03 04:58:23;;;;;;;22.10;14.10;;;;;;;15.59;72.65;101847.66;5065595;28;20567;-72
2021/09/03 05:00:49;;;;;;;20.73;14.73;;;;;;;15.60;72.29;101842.41;5077557;28;20205;-72
2021/09/03 05:03:14;;;;;;;22.80;15.57;;;;;;;15.88;71.52;101834.69;5066954;28;20181;-72
2021/09/03 05:05:39;;;;;;;20.20;14.23;;;;;;;15.60;72.72;101841.50;5071387;28;20442;-73
2021/09/03 05:08:06;;;;;;;23.97;15.33;;;;;;;15.81;72.41;101838.16;5074160;28;20258;-72
2021/09/03 05:10:31;;;;;;;21.00;15.20;;;;;;;15.91;71.54;101839.06;5064138;28;20178;-72
2021/09/03 05:12:56;;;;;;;20.10;14.93;;;;;;;16.03;71.44;101830.38;5077153;28;20386;-74
2021/09/03 05:15:31;;;;;;;20.27;16.10;;;;;;;15.91;72.25;101829.47;5067678;28;20176;-72
2021/09/03 05:17:56;;;;;;;22.20;15.13;;;;;;;16.12;71.76;101827.78;5068603;28;20176;-72
2021/09/03 05:20:21;;;;;;;19.50;13.90;;;;;;;16.15;71.96;101833.91;5076595;28;20397;-72
2021/09/03 05:22:47;;;;;;;19.23;14.47;;;;;;;15.90;72.51;101832.06;5065358;28;20452;-73
2021/09/03 05:25:14;;;;;;;20.77;16.03;;;;;;;16.10;72.55;101833.06;5075045;28;20219;-73
2021/09/03 05:27:40;;;;;;;19.33;14.00;;;;;;;16.24;71.69;101832.22;5072276;28;20511;-73
2021/09/03 05:30:07;;;;;;;19.53;14.30;;;;;;;16.24;71.98;101827.84;5073640;28;20441;-72
2021/09/03 05:32:33;;;;;;;27.30;14.63;;;;;;;16.49;70.87;101820.91;5071537;28;20430;-71
2021/09/03 05:34:58;;;;;;;21.17;12.83;;;;;;;16.46;71.19;101830.53;5075346;28;20752;-71
2021/09/03 05:37:23;;;;;;;16.33;12.87;;;;;;;16.57;71.32;101825.28;5074936;28;20176;-72
2021/09/03 05:39:49;;;;;;;22.83;14.50;;;;;;;16.57;71.20;101826.16;5075039;28;20203;-72
2021/09/03 05:42:14;;;;;;;18.13;13.57;;;;;;;16.53;71.01;101824.41;5072675;28;20182;-73
2021/09/03 05:44:39;;;;;;;22.70;14.23;;;;;;;16.81;70.64;101829.72;5072705;28;20498;-72
2021/09/03 05:47:05;;;;;;;19.70;13.97;;;;;;;16.63;71.19;101830.59;5074550;28;20221;-72
2021/09/03 05:49:30;;;;;;;19.53;13.80;;;;;;;16.48;71.39;101828.75;5066280;28;20181;-73
2021/09/03 05:51:56;;;;;;;18.90;14.50;;;;;;;16.61;71.34;101829.69;5066016;28;20235;-73
2021/09/03 05:54:21;;;;;;;22.43;14.73;;;;;;;17.05;69.66;101828.00;5075610;28;20189;-71
2021/09/03 05:56:46;;;;;;;21.63;14.40;;;;;;;17.08;69.57;101818.34;5066742;28;20173;-71
2021/09/03 05:59:12;;;;;;;17.73;13.10;;;;;;;16.95;70.53;101824.50;5069146;28;20178;-70
2021/09/03 06:01:37;;;;;;;19.63;13.30;;;;;;;17.03;69.73;101821.88;5065370;28;20178;-72
2021/09/03 06:04:05;;;;;;;21.13;14.03;;;;;;;16.80;70.67;101817.44;5076369;28;20196;-71
2021/09/03 06:06:30;;;;;;;19.37;13.67;;;;;;;17.00;70.39;101813.06;5059782;28;20205;-71
2021/09/03 06:08:55;;;;;;;17.60;13.80;;;;;;;17.38;69.22;101811.28;5068138;28;20453;-71
2021/09/03 06:11:26;;;;;;;20.80;14.20;;;;;;;16.98;70.54;101812.22;5068257;28;20501;-72
2021/09/03 06:13:53;;;;;;;18.30;13.17;;;;;;;17.20;69.71;101806.94;5075722;28;20187;-72
2021/09/03 06:16:18;;;;;;;19.47;14.17;;;;;;;16.90;70.46;101807.81;5061948;28;20401;-71
2021/09/03 06:18:43;;;;;;;20.40;13.50;;;;;;;16.98;70.65;101812.22;5072873;28;20911;-72
2021/09/03 06:21:09;;;;;;;16.40;12.70;;;;;;;16.96;70.43;101810.44;5069636;28;20180;-71
2021/09/03 06:23:34;;;;;;;18.13;13.20;;;;;;;16.99;70.19;101810.44;5065437;28;20216;-71
2021/09/03 06:26:00;;;;;;;21.30;14.30;;;;;;;17.39;69.51;101807.78;5064028;28;20178;-72
2021/09/03 06:28:25;;;;;;;17.60;12.43;;;;;;;17.37;69.47;101806.03;5074863;28;20444;-72
2021/09/03 06:30:50;;;;;;;18.40;12.70;;;;;;;17.35;69.57;101803.41;5067023;28;20196;-72
2021/09/03 06:33:16;;;;;;;18.30;12.53;;;;;;;17.64;68.30;101797.19;5068062;28;20173;-71
2021/09/03 06:35:41;;;;;;;22.67;13.80;;;;;;;17.25;69.28;101804.28;5073974;28;20219;-72
2021/09/03 06:38:07;;;;;;;16.17;12.93;;;;;;;17.25;69.40;101802.53;5062446;28;20259;-71
2021/09/03 06:40:32;;;;;;;19.60;13.27;;;;;;;17.61;68.73;101799.84;5073943;28;20169;-72
2021/09/03 06:42:57;;;;;;;21.53;12.20;;;;;;;17.86;67.90;101803.28;5067694;28;20561;-72
2021/09/03 06:45:23;;;;;;;18.20;12.90;;;;;;;17.41;69.54;101807.78;5066530;28;20241;-72
2021/09/03 06:47:48;;;;;;;17.20;12.00;;;;;;;17.85;68.09;101802.38;5074480;28;20225;-70
2021/09/03 06:50:13;;;;;;;17.47;11.83;;;;;;;17.92;67.59;101802.41;5062638;28;20189;-76
2021/09/03 06:52:38;;;;;;;15.10;11.60;;;;;;;17.61;68.50;101800.69;5073364;28;20459;-76
2021/09/03 06:55:04;;;;;;;16.50;12.87;;;;;;;17.45;69.14;101797.22;5068122;28;20207;-75
2021/09/03 06:57:30;;;;;;;22.43;12.90;;;;;;;17.92;67.44;101797.13;5066008;28;20263;-73
2021/09/03 06:59:55;;;;;;;17.70;10.80;;;;;;;17.82;68.02;101797.13;5065346;28;20774;-74
2021/09/03 07:02:21;;;;;;;19.17;11.33;;;;;;;17.46;68.97;101792.84;5058219;28;20192;-74
2021/09/03 07:04:46;;;;;;;17.73;11.30;;;;;;;17.43;69.07;101798.13;5054501;28;20181;-74
2021/09/03 07:07:11;;;;;;;18.03;11.20;;;;;;;17.57;68.35;101798.94;5067440;28;20187;-75
2021/09/03 07:09:37;;;;;;;15.03;11.50;;;;;;;17.43;68.34;101806.91;5063015;28;20258;-74
2021/09/03 07:12:02;;;;;;;24.13;12.03;;;;;;;17.55;68.31;101803.38;5073366;28;20230;-75
2021/09/03 07:14:28;;;;;;;18.80;12.47;;;;;;;17.85;67.07;101801.53;5058759;28;20215;-75
2021/09/03 07:16:53;;;;;;;15.70;12.27;;;;;;;17.65;67.29;101802.44;5066869;28;20488;-75
2021/09/03 07:19:21;;;;;;;18.30;12.30;;;;;;;17.47;68.25;101795.47;5066847;28;20550;-74
2021/09/03 07:21:47;;;;;;;21.23;13.70;;;;;;;18.50;65.25;101790.66;5074205;28;20173;-74
2021/09/03 07:24:12;;;;;;;17.77;12.17;;;;;;;17.93;67.28;101793.63;5061552;28;20850;-73
2021/09/03 07:26:38;;;;;;;16.23;12.33;;;;;;;17.82;67.43;101802.41;5078262;28;20169;-74
2021/09/03 07:29:04;;;;;;;13.10;11.70;;;;;;;17.70;67.46;101789.25;5068780;28;20224;-73
2021/09/03 07:31:30;;;;;;;18.90;11.77;;;;;;;18.19;66.04;101790.84;5071180;28;20177;-77
2021/09/03 07:33:56;;;;;;;14.77;11.33;;;;;;;18.27;64.91;101786.41;5061317;28;20454;-74
2021/09/03 07:36:21;;;;;;;15.07;11.40;;;;;;;18.54;63.84;101788.88;5074372;28;20408;-73
2021/09/03 07:38:46;;;;;;;14.93;12.40;;;;;;;17.95;66.22;101783.91;5053997;28;20230;-75
2021/09/03 07:41:12;;;;;;;15.07;11.77;;;;;;;18.09;65.19;101790.03;5067210;28;20235;-75
2021/09/03 07:43:37;;;;;;;15.83;11.67;;;;;;;18.51;64.00;101793.28;5068985;28;20176;-76
2021/09/03 07:46:02;;;;;;;12.80;10.07;;;;;;;18.62;63.56;101789.72;5061071;28;20237;-73
2021/09/03 07:48:28;;;;;;;16.50;11.40;;;;;;;18.75;63.56;101791.34;5057503;28;20495;-72
2021/09/03 07:50:53;;;;;;;13.90;10.00;;;;;;;19.39;60.95;101791.72;5057942;28;20193;-71
2021/09/03 07:53:18;;;;;;;16.63;10.83;;;;;;;19.87;59.60;101782.41;5066727;28;20185;-75
2021/09/03 07:55:44;;;;;;;13.83;11.10;;;;;;;19.21;61.36;101790.13;5073022;28;20173;-74
2021/09/03 07:58:09;;;;;;;14.80;10.60;;;;;;;19.01;61.72;101785.00;5061635;28;20169;-74
2021/09/03 08:00:36;;;;;;;14.03;10.60;;;;;;;19.17;61.39;101788.41;5072875;28;20169;-74
2021/09/03 08:03:01;;;;;;;11.20;9.77;;;;;;;20.19;58.90;101772.25;5058263;28;20185;-76
2021/09/03 08:05:27;;;;;;;11.57;9.80;;;;;;;19.34;60.75;101785.59;5054151;28;20420;-72
2021/09/03 08:07:52;;;;;;;13.10;9.57;;;;;;;20.23;58.50;101780.16;5057853;28;20586;-73
2021/09/03 08:10:18;;;;;;;13.27;10.47;;;;;;;20.08;58.81;101779.47;5074316;28;20170;-73
2021/09/03 08:12:44;;;;;;;14.87;10.27;;;;;;;19.97;58.82;101778.72;5064589;28;20165;-72
2021/09/03 08:15:10;;;;;;;14.40;10.43;;;;;;;21.10;56.03;101769.97;5058907;28;20578;-74
2021/09/03 08:17:36;;;;;;;14.73;9.67;;;;;;;20.34;57.74;101772.94;5071954;28;20437;-76
2021/09/03 08:20:03;;;;;;;11.57;10.37;;;;;;;20.16;57.79;101774.06;5077386;28;20403;-77
2021/09/03 08:22:29;;;;;;;12.87;10.00;;;;;;;20.53;56.92;101776.19;5066731;28;20253;-77
2021/09/03 08:24:54;;;;;;;13.50;11.37;;;;;;;21.04;55.78;101767.44;5073918;28;20431;-75
2021/09/03 08:27:20;;;;;;;13.00;10.57;;;;;;;20.25;57.94;101770.44;5073137;28;20193;-77
2021/09/03 08:29:46;;;;;;;12.33;11.03;;;;;;;21.09;55.47;101768.22;5066882;28;20197;-78
2021/09/03 08:32:11;;;;;;;15.83;10.50;;;;;;;20.47;57.23;101779.81;5069106;28;20264;-73
2021/09/03 08:34:37;;;;;;;12.50;9.83;;;;;;;22.98;49.51;101764.19;5076231;28;20490;-74
2021/09/03 08:37:02;;;;;;;12.10;10.90;;;;;;;24.96;43.63;101755.66;5071517;28;20547;-73
2021/09/03 08:39:28;;;;;;;10.67;9.57;;;;;;;24.45;45.06;101760.88;5069520;28;20178;-73
2021/09/03 08:41:53;;;;;;;15.13;11.53;;;;;;;23.19;47.42;101766.31;5064213;28;20173;-72
2021/09/03 08:44:18;;;;;;;11.50;10.40;;;;;;;23.41;47.68;101765.72;5078529;28;20255;-72
2021/09/03 08:46:45;;;;;;;14.77;10.90;;;;;;;24.88;44.44;101764.81;5067086;28;20229;-73
2021/09/03 08:49:10;;;;;;;13.47;11.50;;;;;;;26.52;41.15;101764.09;5054451;28;20198;-74
2021/09/03 08:51:36;;;;;;;12.03;10.20;;;;;;;27.25;38.77;101760.16;5074767;28;20426;-76
2021/09/03 08:54:01;;;;;;;14.17;9.60;;;;;;;27.20;39.90;101758.53;5064962;28;20184;-74
2021/09/03 08:56:26;;;;;;;9.70;8.67;;;;;;;26.70;39.28;101750.88;5077896;28;20169;-77
2021/09/03 08:58:52;;;;;;;10.13;9.00;;;;;;;26.32;40.54;101753.34;5069261;28;20536;-75
2021/09/03 09:01:18;;;;;;;10.60;9.10;;;;;;;25.23;42.29;101751.16;5069746;28;20208;-79
2021/09/03 09:03:45;;;;;;;9.97;8.97;;;;;;;25.22;42.78;101752.06;5055453;28;20177;-75
2021/09/03 09:06:27;;;;;;;9.63;8.63;;;;;;;25.30;42.63;101752.69;5054284;28;20416;-75
2021/09/03 09:08:56;;;;;;;10.73;7.47;;;;;;;25.97;41.39;101755.59;5048979;28;20475;-73
2021/09/03 09:11:25;;;;;;;10.40;8.40;;;;;;;25.63;41.85;101755.06;5055959;28;20411;-73
2021/09/03 09:13:51;;;;;;;10.30;7.60;;;;;;;26.18;40.35;101753.88;5055898;28;20447;-72
2021/09/03 09:16:18;;;;;;;10.40;8.73;;;;;;;27.25;38.79;101746.75;5054184;28;20667;-72
2021/09/03 09:18:47;;;;;;;9.03;7.60;;;;;;;26.25;40.72;101750.03;5073553;28;20174;-73
2021/09/03 09:21:13;;;;;;;12.63;8.17;;;;;;;26.51;39.81;101738.28;5070834;28;20469;-72
2021/09/03 09:23:43;;;;;;;10.53;7.73;;;;;;;27.56;38.15;101738.22;5066221;28;20416;-73
2021/09/03 09:26:09;;;;;;;11.73;7.33;;;;;;;26.95;38.71;101736.47;5076802;28;20234;-73
2021/09/03 09:28:34;;;;;;;9.57;7.70;;;;;;;27.51;38.51;101734.91;5065600;28;20732;-74
2021/09/03 09:31:00;;;;;;;9.50;7.50;;;;;;;28.34;36.94;101738.16;5071057;28;20256;-73
2021/09/03 09:33:25;;;;;;;11.47;7.47;;;;;;;27.67;38.57;101740.41;5072127;28;20188;-73
2021/09/03 09:35:52;;;;;;;8.87;7.00;;;;;;;26.77;39.68;101736.34;5077074;28;20589;-75
2021/09/03 09:38:19;;;;;;;11.60;8.87;;;;;;;27.21;38.79;101746.91;5062300;28;20200;-73
2021/09/03 09:40:49;;;;;;;11.33;10.13;;;;;;;28.20;37.13;101726.28;5054099;28;20424;-72
2021/09/03 09:43:21;;;;;;;7.87;6.57;;;;;;;27.64;37.97;101740.56;5055125;28;20408;-72
2021/09/03 09:46:08;;;;;;;7.80;6.60;;;;;;;27.56;38.29;101741.81;5075129;28;20421;-72
2021/09/03 09:48:34;;;;;;;9.53;6.80;;;;;;;27.68;37.46;101734.13;5050380;28;20902;-73
2021/09/03 09:50:59;;;;;;;7.70;6.47;;;;;;;28.17;36.93;101734.50;5070137;28;20427;-75
2021/09/03 09:53:26;;;;;;;9.23;7.93;;;;;;;28.05;36.89;101733.28;5071408;28;20415;-76
2021/09/03 09:55:51;;;;;;;10.00;8.97;;;;;;;27.62;37.82;101734.44;5060363;28;20174;-75
2021/09/03 09:58:19;;;;;;;9.00;7.47;;;;;;;27.56;37.71;101731.09;5060110;28;20465;-75
2021/09/03 10:00:45;;;;;;;8.40;7.27;;;;;;;29.05;35.71;101718.47;5053394;28;20181;-75
2021/09/03 10:03:10;;;;;;;10.50;7.27;;;;;;;28.03;37.07;101726.25;5055216;28;20409;-74
2021/09/03 10:05:37;;;;;;;8.43;6.70;;;;;;;27.78;37.36;101724.72;5064950;28;20256;-72
2021/09/03 10:08:03;;;;;;;8.23;7.30;;;;;;;29.04;36.20;101722.13;5075940;28;20251;-72
2021/09/03 10:10:29;;;;;;;10.43;8.00;;;;;;;28.56;37.35;101717.38;5064336;28;20424;-72
2021/09/03 10:12:55;;;;;;;10.63;9.63;;;;;;;28.12;37.75;101715.09;5062811;28;20422;-72
2021/09/03 10:15:20;;;;;;;15.07;13.20;;;;;;;28.06;37.15;101718.06;5058740;28;20189;-72
2021/09/03 10:17:47;;;;;;;8.77;7.77;;;;;;;27.79;37.36;101718.41;5074890;28;20470;-77
2021/09/03 10:20:12;;;;;;;7.60;6.87;;;;;;;27.59;37.88;101723.84;5061821;28;20272;-75
2021/09/03 10:22:46;;;;;;;7.80;7.00;;;;;;;28.28;36.76;101723.25;5072400;28;20423;-76
2021/09/03 10:25:11;;;;;;;11.23;7.10;;;;;;;28.20;36.47;101720.94;5069660;28;20203;-76
2021/09/03 10:27:40;;;;;;;9.90;6.80;;;;;;;27.90;37.33;101726.81;5065120;28;20840;-73
2021/09/03 10:30:16;;;;;;;8.90;7.17;;;;;;;27.29;38.74;101726.94;5054444;28;20555;-73
2021/09/03 10:32:42;;;;;;;12.60;6.90;;;;;;;27.02;39.36;101725.44;5057424;28;20431;-76
2021/09/03 10:35:19;;;;;;;9.87;7.37;;;;;;;27.43;38.52;101720.97;5058268;28;20433;-74
2021/09/03 10:37:44;;;;;;;10.50;8.23;;;;;;;26.23;40.51;101720.69;5075096;28;20212;-74
2021/09/03 10:40:39;;;;;;;8.80;7.50;;;;;;;26.55;40.04;101715.81;5069315;28;20691;-74
2021/09/03 10:43:04;;;;;;;8.97;7.90;;;;;;;27.17;39.46;101706.94;5070354;28;20643;-73
2021/09/03 10:45:35;;;;;;;12.80;9.27;;;;;;;28.46;37.61;101696.44;5068909;28;20488;-75
2021/09/03 10:48:07;;;;;;;10.87;8.80;;;;;;;28.05;38.15;101700.25;5058808;28;20213;-74
2021/09/03 10:50:43;;;;;;;11.40;8.20;;;;;;;26.11;41.42;101705.16;5055903;28;20500;-74
2021/09/03 10:53:10;;;;;;;11.73;8.03;;;;;;;27.18;39.44;101698.88;5053155;28;20416;-75
2021/09/03 10:55:50;;;;;;;12.30;10.43;;;;;;;27.21;39.21;101698.72;5051988;28;20432;-72
2021/09/03 10:58:41;;;;;;;11.43;9.60;;;;;;;25.83;41.95;101698.22;5056713;28;20469;-74
2021/09/03 11:01:13;;;;;;;15.80;12.30;;;;;;;27.21;39.85;101693.38;5053452;28;20433;-74
2021/09/03 11:03:44;;;;;;;15.90;14.40;;;;;;;27.80;38.04;101690.66;5069759;28;20422;-74
2021/09/03 11:06:14;;;;;;;16.30;12.50;;;;;;;28.18;37.81;101687.94;5058730;28;20433;-75
2021/09/03 11:08:44;;;;;;;14.27;10.80;;;;;;;26.09;40.83;101700.78;5055172;28;20453;-74